createdAt,value
2019-05-02T00:00:06.040Z,74.22
2019-05-02T00:02:40.955Z,74.37
2019-05-02T00:05:16.020Z,74.24
2019-05-02T00:07:48.610Z,74.00
2019-05-02T00:10:24.956Z,73.70
2019-05-02T00:12:57.430Z,73.31
2019-05-02T00:15:33.179Z,73.37
2019-05-02T00:18:05.661Z,72.94
2019-05-02T00:20:38.679Z,73.07
2019-05-02T00:23:11.850Z,73.47
2019-05-02T00:25:47.258Z,73.59
2019-05-02T00:28:19.265Z,74.42
2019-05-02T00:30:51.769Z,74.35
2019-05-02T00:33:29.334Z,74.36
2019-05-02T00:35:59.090Z,74.37
2019-05-02T00:38:33.265Z,74.29
2019-05-02T00:41:06.485Z,74.49
2019-05-02T00:43:39.106Z,74.49
2019-05-02T00:46:11.849Z,74.26
2019-05-02T00:48:48.564Z,74.03
2019-05-02T00:51:22.001Z,73.92
2019-05-02T00:53:56.903Z,74.06
2019-05-02T00:56:29.520Z,73.81
2019-05-02T00:59:07.061Z,73.81
2019-05-02T01:01:39.550Z,74.10
2019-05-02T01:04:16.625Z,73.60
2019-05-02T01:06:50.787Z,73.63
2019-05-02T01:09:23.639Z,73.87
2019-05-02T01:11:56.530Z,74.02
2019-05-02T01:14:31.737Z,74.27
2019-05-02T01:17:04.530Z,74.27
2019-05-02T01:19:37.290Z,73.99
2019-05-02T01:22:10.695Z,74.54
2019-05-02T01:24:44.400Z,74.42
2019-05-02T01:27:28.191Z,75.06
2019-05-02T01:30:09.680Z,75.27
2019-05-02T01:32:46.911Z,75.24
2019-05-02T01:35:26.952Z,75.23
2019-05-02T01:38:17.674Z,75.75
2019-05-02T01:40:53.219Z,76.08
2019-05-02T01:43:32.160Z,76.47
2019-05-02T01:46:04.720Z,77.20
2019-05-02T01:48:40.047Z,77.20
2019-05-02T01:51:12.157Z,77.02
2019-05-02T01:53:44.870Z,77.28
2019-05-02T01:56:17.359Z,77.61
2019-05-02T01:58:52.955Z,77.79
2019-05-02T02:01:24.367Z,77.59
2019-05-02T02:03:56.885Z,77.54
2019-05-02T02:06:29.560Z,77.77
2019-05-02T02:09:03.416Z,77.57
2019-05-02T02:11:38.046Z,78.90
2019-05-02T02:14:12.863Z,78.90
2019-05-02T02:16:45.256Z,78.86
2019-05-02T02:19:19.629Z,78.96
2019-05-02T02:21:57.326Z,79.20
2019-05-02T02:24:32.420Z,79.17
2019-05-02T02:27:05.124Z,79.42
2019-05-02T02:29:39.094Z,79.07
2019-05-02T02:32:12.290Z,79.12
2019-05-02T02:34:44.983Z,79.03
2019-05-02T02:37:17.600Z,79.03
2019-05-02T02:39:54.170Z,78.92
2019-05-02T02:42:31.177Z,79.08
2019-05-02T02:45:00.812Z,78.29
2019-05-02T02:47:34.821Z,78.29
2019-05-02T02:50:08.510Z,77.90
2019-05-02T02:52:44.652Z,77.47
2019-05-02T02:55:22.262Z,77.32
2019-05-02T02:57:50.915Z,77.15
2019-05-02T03:00:23.375Z,77.20
2019-05-02T03:02:56.371Z,77.59
2019-05-02T03:05:28.901Z,77.83
2019-05-02T03:08:05.414Z,77.73
2019-05-02T03:10:39.924Z,77.94
2019-05-02T03:13:24.282Z,77.94
2019-05-02T03:16:12.581Z,77.80
2019-05-02T03:18:45.415Z,77.58
2019-05-02T03:21:20.165Z,77.58
2019-05-02T03:24:01.559Z,77.09
2019-05-02T03:26:27.697Z,76.60
2019-05-02T03:29:01.078Z,76.60
2019-05-02T03:31:33.581Z,75.90
2019-05-02T03:34:06.558Z,75.90
2019-05-02T03:36:40.202Z,76.00
2019-05-02T03:39:17.158Z,75.73
2019-05-02T03:41:47.392Z,75.40
2019-05-02T03:44:26.045Z,75.40
2019-05-02T03:47:01.898Z,75.74
2019-05-02T03:49:29.225Z,75.28
2019-05-02T03:52:03.268Z,74.99
2019-05-02T03:54:48.363Z,74.99
2019-05-02T03:57:10.925Z,74.75
2019-05-02T03:59:43.616Z,74.35
2019-05-02T04:02:20.488Z,74.00
2019-05-02T04:04:54.138Z,73.82
2019-05-02T04:07:26.631Z,73.53
2019-05-02T04:09:59.665Z,72.17
2019-05-02T04:12:32.976Z,71.75
2019-05-02T04:15:09.570Z,71.86
2019-05-02T04:17:42.895Z,71.52
2019-05-02T04:20:15.911Z,70.47
2019-05-02T04:22:50.685Z,70.47
2019-05-02T04:25:27.886Z,70.22
2019-05-02T04:28:05.974Z,70.29
2019-05-02T04:30:35.607Z,69.67
2019-05-02T04:33:08.178Z,69.66
2019-05-02T04:35:40.750Z,69.35
2019-05-02T04:38:20.276Z,69.34
2019-05-02T04:40:49.587Z,70.25
2019-05-02T04:43:22.327Z,69.66
2019-05-02T04:45:57.406Z,69.66
2019-05-02T04:48:34.554Z,69.29
2019-05-02T04:51:10.377Z,69.11
2019-05-02T04:53:42.157Z,69.11
2019-05-02T04:56:13.256Z,68.82
2019-05-02T04:58:48.978Z,68.82
2019-05-02T05:01:21.797Z,68.58
2019-05-02T05:03:58.270Z,68.56
2019-05-02T05:06:29.421Z,68.27
2019-05-02T05:09:04.057Z,68.27
2019-05-02T05:11:38.132Z,68.89
2019-05-02T05:14:10.761Z,68.66
2019-05-02T05:16:45.345Z,68.20
2019-05-02T05:19:17.905Z,67.90
2019-05-02T05:21:50.607Z,68.03
2019-05-02T05:24:28.081Z,66.40
2019-05-02T05:27:00.821Z,66.21
2019-05-02T05:29:33.590Z,59.96
2019-05-02T05:32:09.875Z,58.62
2019-05-02T05:34:41.225Z,55.67
2019-05-02T05:37:13.810Z,56.24
2019-05-02T05:39:48.790Z,56.24
2019-05-02T05:42:23.188Z,58.83
2019-05-02T05:44:55.428Z,60.05
2019-05-02T05:47:28.330Z,60.97
2019-05-02T05:50:01.406Z,61.81
2019-05-02T05:52:38.697Z,62.26
2019-05-02T05:55:12.682Z,63.33
2019-05-02T05:57:44.370Z,63.03
2019-05-02T06:00:23.060Z,63.47
2019-05-02T06:02:56.275Z,64.09
2019-05-02T06:05:27.649Z,63.56
2019-05-02T06:08:00.315Z,63.27
2019-05-02T06:10:33.179Z,63.56
2019-05-02T06:13:11.103Z,62.62
2019-05-02T06:15:40.477Z,63.06
2019-05-02T06:18:13.511Z,61.91
2019-05-02T06:20:46.075Z,62.31
2019-05-02T06:23:19.305Z,60.98
2019-05-02T06:25:52.115Z,61.60
2019-05-02T06:28:24.504Z,62.22
2019-05-02T06:30:57.505Z,61.26
2019-05-02T06:33:30.553Z,61.80
2019-05-02T06:36:04.995Z,61.12
2019-05-02T06:38:37.566Z,61.85
2019-05-02T06:41:10.684Z,61.49
2019-05-02T06:43:46.501Z,60.64
2019-05-02T06:46:21.856Z,60.76
2019-05-02T06:48:52.542Z,60.52
2019-05-02T06:51:27.605Z,60.24
2019-05-02T06:54:00.326Z,60.66
2019-05-02T06:56:32.989Z,59.50
2019-05-02T06:59:05.775Z,59.57
2019-05-02T07:01:38.750Z,59.10
2019-05-02T07:04:11.215Z,59.50
2019-05-02T07:06:57.203Z,59.41
2019-05-02T07:09:18.871Z,60.07
2019-05-02T07:11:57.461Z,61.08
2019-05-02T07:14:26.250Z,60.13
2019-05-02T07:17:01.226Z,60.24
2019-05-02T07:19:42.360Z,59.00
2019-05-02T07:22:15.156Z,58.18
2019-05-02T07:24:48.004Z,57.56
2019-05-02T07:27:20.960Z,55.94
2019-05-02T07:29:57.853Z,55.68
2019-05-02T07:32:29.339Z,54.87
2019-05-02T07:35:01.886Z,54.32
2019-05-02T07:37:34.700Z,54.56
2019-05-02T07:40:12.062Z,52.05
2019-05-02T07:42:44.635Z,52.32
2019-05-02T07:45:17.521Z,52.62
2019-05-02T07:47:50.115Z,53.61
2019-05-02T07:50:22.730Z,52.97
2019-05-02T07:52:55.605Z,52.84
2019-05-02T07:55:30.517Z,51.71
2019-05-02T07:58:06.993Z,51.47
2019-05-02T08:00:38.353Z,51.89
2019-05-02T08:03:11.255Z,52.88
2019-05-02T08:05:43.906Z,52.83
2019-05-02T08:08:16.405Z,53.80
2019-05-02T08:10:53.832Z,53.96
2019-05-02T08:13:23.540Z,54.54
2019-05-02T08:15:56.352Z,53.96
2019-05-02T08:18:30.349Z,53.41
2019-05-02T08:21:03.560Z,52.83
2019-05-02T08:23:36.365Z,52.51
2019-05-02T08:26:09.055Z,52.55
2019-05-02T08:28:47.003Z,51.74
2019-05-02T08:31:18.872Z,50.96
2019-05-02T08:33:52.905Z,50.80
2019-05-02T08:36:26.425Z,50.41
2019-05-02T08:38:58.895Z,50.98
2019-05-02T08:41:31.415Z,50.93
2019-05-02T08:44:03.875Z,52.16
2019-05-02T08:46:36.164Z,51.40
2019-05-02T08:49:08.416Z,51.88
2019-05-02T08:51:41.602Z,52.62
2019-05-02T08:54:14.279Z,50.32
2019-05-02T08:56:46.738Z,51.57
2019-05-02T08:59:19.689Z,51.61
2019-05-02T09:01:52.596Z,51.71
2019-05-02T09:04:29.117Z,52.38
2019-05-02T09:07:00.770Z,52.21
2019-05-02T09:09:33.700Z,51.80
2019-05-02T09:12:12.270Z,51.28
2019-05-02T09:14:42.577Z,50.58
2019-05-02T09:17:16.646Z,51.01
2019-05-02T09:20:00.375Z,50.88
2019-05-02T09:22:24.142Z,50.32
2019-05-02T09:24:56.617Z,50.73
2019-05-02T09:27:31.699Z,50.59
2019-05-02T09:30:04.181Z,50.33
2019-05-02T09:32:37.215Z,50.53
2019-05-02T09:35:11.671Z,49.71
2019-05-02T09:37:44.922Z,49.75
2019-05-02T09:40:22.030Z,49.69
2019-05-02T09:42:58.460Z,49.43
2019-05-02T09:45:33.339Z,49.16
2019-05-02T09:48:07.014Z,49.53
2019-05-02T09:50:38.452Z,47.88
2019-05-02T09:53:20.049Z,48.17
2019-05-02T09:55:50.196Z,49.27
2019-05-02T09:58:21.885Z,48.65
2019-05-02T10:00:55.806Z,47.62
2019-05-02T10:03:28.790Z,47.23
2019-05-02T10:06:03.098Z,46.02
2019-05-02T10:08:38.255Z,45.55
2019-05-02T10:11:11.756Z,47.19
2019-05-02T10:13:44.830Z,45.60
2019-05-02T10:16:17.915Z,44.86
2019-05-02T10:18:52.320Z,45.18
2019-05-02T10:21:25.550Z,44.64
2019-05-02T10:23:59.380Z,45.49
2019-05-02T10:26:33.235Z,45.71
2019-05-02T10:29:06.962Z,46.48
2019-05-02T10:31:41.529Z,45.86
2019-05-02T10:34:17.504Z,46.78
2019-05-02T10:36:54.288Z,45.88
2019-05-02T10:39:23.606Z,43.90
2019-05-02T10:41:57.602Z,43.67
2019-05-02T10:44:32.612Z,43.02
2019-05-02T10:47:05.020Z,43.66
2019-05-02T10:49:42.692Z,42.34
2019-05-02T10:52:15.392Z,43.56
2019-05-02T10:54:47.929Z,44.49
2019-05-02T10:57:21.959Z,43.69
2019-05-02T10:59:56.205Z,44.14
2019-05-02T11:02:34.203Z,44.28
2019-05-02T11:05:08.970Z,44.38
2019-05-02T11:07:42.716Z,43.83
2019-05-02T11:10:15.705Z,45.97
2019-05-02T11:12:59.270Z,44.64
2019-05-02T11:15:49.987Z,44.73
2019-05-02T11:18:39.419Z,44.18
2019-05-02T11:21:03.034Z,44.09
2019-05-02T11:23:33.289Z,45.18
2019-05-02T11:26:06.151Z,44.86
2019-05-02T11:28:39.059Z,43.78
2019-05-02T11:31:12.508Z,44.18
2019-05-02T11:33:45.380Z,44.09
2019-05-02T11:36:17.924Z,44.96
2019-05-02T11:39:00.559Z,44.91
2019-05-02T11:41:24.989Z,45.19
2019-05-02T11:43:57.959Z,45.95
2019-05-02T11:46:32.826Z,45.08
2019-05-02T11:49:05.259Z,44.89
2019-05-02T11:51:38.466Z,45.75
2019-05-02T11:54:12.882Z,46.10
2019-05-02T11:56:49.045Z,45.98
2019-05-02T11:59:27.734Z,46.54
2019-05-02T12:02:00.171Z,46.74
2019-05-02T12:04:33.604Z,46.47
2019-05-02T12:07:06.669Z,46.42
2019-05-02T12:09:39.417Z,46.64
2019-05-02T12:12:15.655Z,46.06
2019-05-02T12:14:48.720Z,45.57
2019-05-02T12:17:21.770Z,45.80
2019-05-02T12:19:54.816Z,45.28
2019-05-02T12:22:27.809Z,45.89
2019-05-02T12:25:02.868Z,44.06
2019-05-02T12:27:34.910Z,43.73
2019-05-02T12:30:08.142Z,43.77
2019-05-02T12:32:42.725Z,43.50
2019-05-02T12:35:15.784Z,43.62
2019-05-02T12:37:53.699Z,44.71
2019-05-02T12:40:23.609Z,44.66
2019-05-02T12:42:56.770Z,43.95
2019-05-02T12:45:29.659Z,44.52
2019-05-02T12:48:02.569Z,45.90
2019-05-02T12:50:35.472Z,45.71
2019-05-02T12:53:08.070Z,45.24
2019-05-02T12:55:42.139Z,45.44
2019-05-02T12:58:15.374Z,46.85
2019-05-02T13:00:47.865Z,45.67
2019-05-02T13:03:38.239Z,46.03
2019-05-02T13:06:12.288Z,46.27
2019-05-02T13:08:52.395Z,45.98
2019-05-02T13:11:36.768Z,46.30
2019-05-02T13:14:16.945Z,46.39
2019-05-02T13:16:43.049Z,46.49
2019-05-02T13:19:16.059Z,46.00
2019-05-02T13:21:59.513Z,45.88
2019-05-02T13:24:33.535Z,45.79
2019-05-02T13:27:08.905Z,46.96
2019-05-02T13:29:42.855Z,47.24
2019-05-02T13:32:18.830Z,46.25
2019-05-02T13:35:06.911Z,46.53
2019-05-02T13:37:40.021Z,46.01
2019-05-02T13:40:18.905Z,45.14
2019-05-02T13:42:52.371Z,46.23
2019-05-02T13:45:41.937Z,45.51
2019-05-02T13:48:14.885Z,46.19
2019-05-02T13:50:47.875Z,45.82
2019-05-02T13:53:22.691Z,46.06
2019-05-02T13:55:59.335Z,45.17
2019-05-02T13:58:33.201Z,45.39
2019-05-02T14:01:06.105Z,46.09
2019-05-02T14:03:38.855Z,46.16
2019-05-02T14:06:12.399Z,46.57
2019-05-02T14:08:49.770Z,47.35
2019-05-02T14:11:41.061Z,47.42
2019-05-02T14:14:13.755Z,46.58
2019-05-02T14:16:46.360Z,45.09
2019-05-02T14:19:19.045Z,45.61
2019-05-02T14:21:51.973Z,45.92
2019-05-02T14:24:24.466Z,46.92
2019-05-02T14:26:57.163Z,47.04
2019-05-02T14:29:30.032Z,47.39
2019-05-02T14:32:02.822Z,47.99
2019-05-02T14:34:49.320Z,47.57
2019-05-02T14:37:22.718Z,47.73
2019-05-02T14:39:57.195Z,46.61
2019-05-02T14:42:29.585Z,46.47
2019-05-02T14:45:11.930Z,47.41
2019-05-02T14:47:36.346Z,47.04
2019-05-02T14:50:23.168Z,47.67
2019-05-02T14:52:45.754Z,47.22
2019-05-02T14:55:23.934Z,47.67
2019-05-02T14:57:52.696Z,47.25
2019-05-02T15:00:33.396Z,46.79
2019-05-02T15:03:03.254Z,47.28
2019-05-02T15:05:35.970Z,46.45
2019-05-02T15:08:08.695Z,46.67
2019-05-02T15:10:50.816Z,46.37
2019-05-02T15:13:15.550Z,46.96
2019-05-02T15:15:48.385Z,47.16
2019-05-02T15:18:22.709Z,47.75
2019-05-02T15:20:55.180Z,48.21
2019-05-02T15:23:27.705Z,47.87
2019-05-02T15:26:00.414Z,47.28
2019-05-02T15:28:37.380Z,47.45
2019-05-02T15:31:11.707Z,47.15
2019-05-02T15:33:51.886Z,47.31
2019-05-02T15:36:24.680Z,47.44
2019-05-02T15:38:57.161Z,47.23
2019-05-02T15:41:29.703Z,46.49
2019-05-02T15:44:02.365Z,47.57
2019-05-02T15:46:34.919Z,47.56
2019-05-02T15:49:07.735Z,48.34
2019-05-02T15:51:43.647Z,48.36
2019-05-02T15:54:18.929Z,48.63
2019-05-02T15:57:00.402Z,48.62
2019-05-02T15:59:37.517Z,48.71
2019-05-02T16:02:17.556Z,48.64
2019-05-02T16:04:48.375Z,49.00
2019-05-02T16:07:22.484Z,49.13
2019-05-02T16:09:59.379Z,49.13
2019-05-02T16:12:32.179Z,49.22
2019-05-02T16:15:13.019Z,49.25
2019-05-02T16:17:38.255Z,49.48
2019-05-02T16:20:17.050Z,48.98
2019-05-02T16:22:50.079Z,49.43
2019-05-02T16:25:24.519Z,48.95
2019-05-02T16:28:04.612Z,49.80
2019-05-02T16:30:32.304Z,49.44
2019-05-02T16:33:08.462Z,48.97
2019-05-02T16:35:39.195Z,48.87
2019-05-02T16:38:12.307Z,49.89
2019-05-02T16:40:47.085Z,50.35
2019-05-02T16:43:20.160Z,50.34
2019-05-02T16:45:52.970Z,51.16
2019-05-02T16:48:30.013Z,51.35
2019-05-02T16:51:02.023Z,51.47
2019-05-02T16:53:34.420Z,51.50
2019-05-02T16:56:07.240Z,51.80
2019-05-02T16:58:43.309Z,52.24
2019-05-02T17:01:19.667Z,52.25
2019-05-02T17:03:49.159Z,51.85
2019-05-02T17:06:26.078Z,52.26
2019-05-02T17:09:05.775Z,52.19
2019-05-02T17:11:41.960Z,52.64
2019-05-02T17:14:14.649Z,52.63
2019-05-02T17:16:51.431Z,52.17
2019-05-02T17:19:21.625Z,52.41
2019-05-02T17:21:56.513Z,52.05
2019-05-02T17:24:28.864Z,52.57
2019-05-02T17:27:02.531Z,52.76
2019-05-02T17:29:35.644Z,52.71
2019-05-02T17:32:09.005Z,52.09
2019-05-02T17:34:42.203Z,52.24
2019-05-02T17:37:15.125Z,52.61
2019-05-02T17:39:47.850Z,52.88
2019-05-02T17:42:22.353Z,53.57
2019-05-02T17:44:57.917Z,53.41
2019-05-02T17:47:31.049Z,53.83
2019-05-02T17:50:06.905Z,54.28
2019-05-02T17:52:48.365Z,54.78
2019-05-02T17:55:21.547Z,54.79
2019-05-02T17:57:54.554Z,55.10
2019-05-02T18:00:29.220Z,55.43
2019-05-02T18:03:02.522Z,56.06
2019-05-02T18:05:36.160Z,56.37
2019-05-02T18:08:10.978Z,56.58
2019-05-02T18:10:43.575Z,56.85
2019-05-02T18:13:16.364Z,57.17
2019-05-02T18:15:49.114Z,57.50
2019-05-02T18:18:22.189Z,57.55
2019-05-02T18:20:55.105Z,57.94
2019-05-02T18:23:27.910Z,58.18
2019-05-02T18:26:02.786Z,58.60
2019-05-02T18:28:46.153Z,58.81
2019-05-02T18:31:09.489Z,59.16
2019-05-02T18:33:42.576Z,59.31
2019-05-02T18:36:17.456Z,59.73
2019-05-02T18:38:54.256Z,60.08
2019-05-02T18:41:26.386Z,60.29
2019-05-02T18:44:00.420Z,60.57
2019-05-02T18:46:36.688Z,61.01
2019-05-02T18:49:08.126Z,60.99
2019-05-02T18:51:42.331Z,61.46
2019-05-02T18:54:15.065Z,61.84
2019-05-02T18:56:51.355Z,62.01
2019-05-02T18:59:26.982Z,62.23
2019-05-02T19:01:59.648Z,62.39
2019-05-02T19:04:38.217Z,62.43
2019-05-02T19:07:07.427Z,62.85
2019-05-02T19:09:50.797Z,62.94
2019-05-02T19:12:22.268Z,63.16
2019-05-02T19:14:50.385Z,63.12
2019-05-02T19:17:23.055Z,63.48
2019-05-02T19:19:55.730Z,63.54
2019-05-02T19:22:28.705Z,64.23
2019-05-02T19:25:03.754Z,64.53
2019-05-02T19:27:52.195Z,64.86
2019-05-02T19:30:39.500Z,64.72
2019-05-02T19:33:12.297Z,65.14
2019-05-02T19:35:46.896Z,65.35
2019-05-02T19:38:22.552Z,65.40
2019-05-02T19:40:58.173Z,65.71
2019-05-02T19:43:28.208Z,65.99
2019-05-02T19:46:02.199Z,65.83
2019-05-02T19:48:36.811Z,66.11
2019-05-02T19:51:12.722Z,66.41
2019-05-02T19:53:43.759Z,66.75
2019-05-02T19:56:16.375Z,66.75
2019-05-02T19:58:49.035Z,66.80
2019-05-02T20:01:22.984Z,67.00
2019-05-02T20:03:56.842Z,67.21
2019-05-02T20:06:32.428Z,67.30
2019-05-02T20:09:08.313Z,67.31
2019-05-02T20:11:42.885Z,67.64
2019-05-02T20:14:15.859Z,67.45
2019-05-02T20:16:53.135Z,67.24
2019-05-02T20:19:27.137Z,67.15
2019-05-02T20:22:06.501Z,66.80
2019-05-02T20:25:00.177Z,66.54
2019-05-02T20:27:32.784Z,66.75
2019-05-02T20:30:06.999Z,66.52
2019-05-02T20:32:39.765Z,66.76
2019-05-02T20:35:13.830Z,66.34
2019-05-02T20:37:46.590Z,66.40
2019-05-02T20:40:31.895Z,66.33
2019-05-02T20:43:05.219Z,65.99
2019-05-02T20:45:37.870Z,66.09
2019-05-02T20:48:11.894Z,66.11
2019-05-02T20:50:44.670Z,66.13
2019-05-02T20:53:28.023Z,66.04
2019-05-02T20:55:52.596Z,66.13
2019-05-02T20:58:25.315Z,65.83
2019-05-02T21:01:07.059Z,65.84
2019-05-02T21:03:32.420Z,65.76
2019-05-02T21:06:36.974Z,65.21
2019-05-02T21:09:15.085Z,65.00
2019-05-02T21:11:52.970Z,64.98
2019-05-02T21:14:25.945Z,64.83
2019-05-02T21:16:58.848Z,64.71
2019-05-02T21:19:32.364Z,64.55
2019-05-02T21:22:09.320Z,64.39
2019-05-02T21:24:42.128Z,64.20
2019-05-02T21:27:15.100Z,63.97
2019-05-02T21:29:47.961Z,63.78
2019-05-02T21:32:22.729Z,63.97
2019-05-02T21:34:55.027Z,63.78
2019-05-02T21:37:28.057Z,63.85
2019-05-02T21:40:02.710Z,63.67
2019-05-02T21:42:35.200Z,63.70
2019-05-02T21:45:08.350Z,64.02
2019-05-02T21:47:42.057Z,63.98
2019-05-02T21:50:21.652Z,63.63
2019-05-02T21:53:12.697Z,63.78
2019-05-02T21:55:56.370Z,63.68
2019-05-02T21:58:28.915Z,63.73
2019-05-02T22:01:04.734Z,63.75
2019-05-02T22:03:39.372Z,63.92
2019-05-02T22:06:12.358Z,64.33
2019-05-02T22:08:45.290Z,64.53
2019-05-02T22:11:17.924Z,64.59
2019-05-02T22:13:51.654Z,64.69
2019-05-02T22:16:24.801Z,64.76
2019-05-02T22:18:57.390Z,64.83
2019-05-02T22:21:34.742Z,64.73
2019-05-02T22:24:11.073Z,64.93
2019-05-02T22:26:43.196Z,64.95
2019-05-02T22:29:13.928Z,65.18
2019-05-02T22:31:46.780Z,65.12
2019-05-02T22:34:19.499Z,65.29
2019-05-02T22:36:54.243Z,65.66
2019-05-02T22:39:34.357Z,65.54
2019-05-02T22:42:07.559Z,65.55
2019-05-02T22:44:41.726Z,65.64
2019-05-02T22:47:14.750Z,65.45
2019-05-02T22:49:47.544Z,65.22
2019-05-02T22:52:21.842Z,65.25
2019-05-02T22:54:54.721Z,65.33
2019-05-02T22:57:27.530Z,65.13
2019-05-02T23:00:01.894Z,65.41
2019-05-02T23:02:35.985Z,65.71
2019-05-02T23:05:09.169Z,66.11
2019-05-02T23:07:41.958Z,66.31
2019-05-02T23:10:14.975Z,66.54
2019-05-02T23:12:47.905Z,67.07
2019-05-02T23:15:21.688Z,67.21
2019-05-02T23:17:55.770Z,67.04
2019-05-02T23:20:28.560Z,67.39
2019-05-02T23:23:01.901Z,67.47
2019-05-02T23:25:52.325Z,67.31
2019-05-02T23:28:29.215Z,67.55
2019-05-02T23:31:02.613Z,67.44
2019-05-02T23:33:53.150Z,67.57
2019-05-02T23:36:26.420Z,67.66
2019-05-02T23:39:01.676Z,67.72
2019-05-02T23:41:35.417Z,67.92
2019-05-02T23:44:08.330Z,67.84
2019-05-02T23:46:42.424Z,68.06
2019-05-02T23:49:15.570Z,67.75
2019-05-02T23:51:48.355Z,67.90
2019-05-02T23:54:22.007Z,67.84
2019-05-02T23:56:57.479Z,67.84
2019-05-02T23:59:29.206Z,67.67
